Airfield :







YOU CAN JOIN US ON...

 
LOGIN :

Register | Disclaimer

   EN    FR    IT 

 









Legend :    VFR   Marginal VFR   IFR   Intensive IFR   Very Intensive IFR
Visi :
Ceiling :
>= 8 km
>= 3000ft
5 to 8 km
1000 to 3000 ft
1500m to 5 km
500 to 1000 ft
800 to 1500m
200 to 500 ft
< 800m
< 200 ft
Symbols :   Thunderstorms  Fog  Heavy snow  Heavy precipitations  Wind > 20 kt






- Airport Elevation : 232 ft
- IATA code : YQM


CYQM - Greater Moncton International

CURRENT METAR :
  • 170634Z 20004KT 6SM R06/3000VP6000FT/U BR SKC 09/09 A3037 RMK VIS LWR N AND W SLP285

EXPIRED METARs :
  • 170600Z 18003KT 8SM R06/3000VP6000FT/D SKC 09/09 A3037 RMK VIS LWR NW SLP286
  • 170500Z 20005KT 15SM SKC 11/11 A3038 RMK SLP290
  • 170400Z 23005KT 15SM SKC 11/11 A3037 RMK SLP288

TAF TAF CYQM
Valid from the 17 at 06:00 until the 18 at 06:00 UTC


170538Z 1706/1806 VRB03KT P6SM SKC
TEMPO 1706/1708 4SM BR SCT001
PROB40 1706/1708 1/2SM FG VV002
FM170800 VRB03KT 1SM BR SCT002
TEMPO 1708/1712 P6SM NSW SKC
FM171200 18005KT 2SM BR BKN003
BECMG 1712/1714 P6SM NSW FEW003 SCT020
FM171500 18008KT P6SM SCT020
TEMPO 1715/1718 BKN020
FM171800 20012KT P6SM SCT030
FM172300 18010KT P6SM BKN015
BECMG 1802/1804 19010G20KT RMK NXT FCST BY 171200Z
CZQM FIR / North America



MET'MAP, your aeronautical weather chart ! - Copyright ORBIFLY December 2007 - Disclaimer

ORBIFLY MET'MAP TEAM :

Programming & Development : Alexandra Zaïnal
Concept & original design : Baudouin d'Aumeries
Assistance for programming : Marc-Olivier Méhu
Technical & hardware support : Manuel Goepfert

Contact : metmap@orbifly.com




SOURCES & CREDITS :

   NOAA